Time;durP1;ratioP1;P1;durP2;ratioP2;P2;SDS_P1;SDS_P2;PMS_P1;PMS_P2;Temp;Humidity;BMP_temperature;BMP_pressure;BME280_temperature;BME280_humidity;BME280_pressure;Samples;Min_cycle;Max_cycle;Signal;HPM_P1;HPM_P2
2022/07/02 00:02:13;;;;;;;12.57;6.10;;;;;;;;;;5134352;27;20481;-70
2022/07/02 00:04:43;;;;;;;8.53;6.37;;;;;;;;;;5133793;27;20570;-70
2022/07/02 00:07:14;;;;;;;6.57;5.73;;;;;;;;;;5133726;27;20464;-70
2022/07/02 00:09:42;;;;;;;7.67;6.33;;;;;;;;;;5133223;27;20538;-70
2022/07/02 00:12:15;;;;;;;7.77;6.50;;;;;;;;;;5134658;27;20536;-70
2022/07/02 00:14:42;;;;;;;7.63;6.60;;;;;;;;;;5133012;27;20466;-71
2022/07/02 00:17:11;;;;;;;7.47;5.77;;;;;;;;;;5132804;27;20510;-70
2022/07/02 00:19:39;;;;;;;6.60;5.80;;;;;;;;;;5133978;27;20544;-70
2022/07/02 00:22:07;;;;;;;7.37;6.27;;;;;;;;;;5133298;27;20558;-71
2022/07/02 00:24:40;;;;;;;8.80;7.87;;;;;;;;;;5134595;27;20836;-70
2022/07/02 00:27:10;;;;;;;8.50;6.60;;;;;;;;;;5134176;27;20446;-70
2022/07/02 00:29:44;;;;;;;7.47;6.60;;;;;;;;;;5133331;27;20532;-70
2022/07/02 00:32:15;;;;;;;7.23;6.53;;;;;;;;;;5132769;27;20939;-70
2022/07/02 00:34:45;;;;;;;8.50;5.80;;;;;;;;;;5132489;27;20775;-70
2022/07/02 00:37:13;;;;;;;9.67;7.00;;;;;;;;;;5134040;27;20724;-70
2022/07/02 00:39:41;;;;;;;7.63;6.93;;;;;;;;;;5134488;27;20456;-70
2022/07/02 00:42:10;;;;;;;8.43;7.30;;;;;;;;;;5133020;27;20517;-70
2022/07/02 00:44:38;;;;;;;12.03;7.50;;;;;;;;;;5132014;28;20751;-70
2022/07/02 00:47:09;;;;;;;10.63;8.47;;;;;;;;;;5132074;28;20457;-70
2022/07/02 00:49:38;;;;;;;9.87;7.30;;;;;;;;;;5132453;28;20474;-70
2022/07/02 00:52:07;;;;;;;10.10;6.80;;;;;;;;;;5132107;28;20844;-70
2022/07/02 00:54:35;;;;;;;14.67;8.20;;;;;;;;;;5131275;28;20449;-70
2022/07/02 00:57:03;;;;;;;10.10;8.30;;;;;;;;;;5132931;28;20596;-70
2022/07/02 00:59:32;;;;;;;8.90;8.00;;;;;;;;;;5133079;28;20452;-70
2022/07/02 01:01:59;;;;;;;11.47;7.43;;;;;;;;;;5131957;28;20642;-70
2022/07/02 01:04:30;;;;;;;8.97;7.73;;;;;;;;;;5131852;28;20708;-70
2022/07/02 01:07:03;;;;;;;7.80;6.80;;;;;;;;;;5132551;28;20454;-70
2022/07/02 01:12:20;;;;;;;9.80;7.80;;;;;;;;;;5133496;28;20475;-71
2022/07/02 01:14:48;;;;;;;8.60;7.37;;;;;;;;;;5134898;27;20465;-71
2022/07/02 01:17:16;;;;;;;10.33;7.63;;;;;;;;;;5137154;27;20846;-71
2022/07/02 01:19:45;;;;;;;8.23;7.33;;;;;;;;;;5137191;27;20445;-71
2022/07/02 01:22:16;;;;;;;11.20;8.00;;;;;;;;;;5137084;27;20465;-71
2022/07/02 01:24:44;;;;;;;14.77;8.03;;;;;;;;;;5137545;27;20485;-71
2022/07/02 01:27:11;;;;;;;7.27;6.57;;;;;;;;;;5137725;27;21036;-70
2022/07/02 01:29:42;;;;;;;8.30;7.37;;;;;;;;;;5137578;27;20493;-71
2022/07/02 01:32:14;;;;;;;8.60;7.70;;;;;;;;;;5137524;27;20530;-70
2022/07/02 01:34:43;;;;;;;7.50;6.47;;;;;;;;;;5138287;27;20770;-71
2022/07/02 01:37:15;;;;;;;7.30;6.60;;;;;;;;;;5137924;27;20496;-70
2022/07/02 01:39:44;;;;;;;8.30;6.93;;;;;;;;;;5138529;27;20457;-70
2022/07/02 01:42:12;;;;;;;7.90;7.10;;;;;;;;;;5137605;27;20461;-70
2022/07/02 01:44:41;;;;;;;6.90;6.20;;;;;;;;;;5138333;27;20541;-70
2022/07/02 01:47:10;;;;;;;7.70;7.00;;;;;;;;;;5138096;27;20541;-71
2022/07/02 01:49:38;;;;;;;6.80;6.10;;;;;;;;;;5139145;27;20441;-71
2022/07/02 01:52:06;;;;;;;8.00;6.23;;;;;;;;;;5137918;27;20514;-70
2022/07/02 01:54:36;;;;;;;9.43;6.27;;;;;;;;;;5137943;27;20453;-71
2022/07/02 01:57:04;;;;;;;7.00;6.30;;;;;;;;;;5136834;27;20576;-70
2022/07/02 01:59:32;;;;;;;7.77;7.00;;;;;;;;;;5137986;27;20987;-70
2022/07/02 02:01:59;;;;;;;6.50;5.90;;;;;;;;;;5137496;27;20530;-70
2022/07/02 02:04:28;;;;;;;7.60;5.77;;;;;;;;;;5136928;27;20903;-70
2022/07/02 02:06:55;;;;;;;7.57;6.07;;;;;;;;;;5137513;27;20825;-71
2022/07/02 02:09:26;;;;;;;7.37;5.87;;;;;;;;;;5137562;27;20572;-70
2022/07/02 02:11:55;;;;;;;8.33;6.93;;;;;;;;;;5137209;27;20549;-71
2022/07/02 02:14:23;;;;;;;8.10;6.30;;;;;;;;;;5137350;27;20500;-70
2022/07/02 02:16:51;;;;;;;9.57;6.20;;;;;;;;;;5135996;27;20502;-70
2022/07/02 02:19:19;;;;;;;6.90;6.03;;;;;;;;;;5136693;27;20491;-71
2022/07/02 02:21:46;;;;;;;7.73;6.70;;;;;;;;;;5135257;27;20765;-70
2022/07/02 02:24:26;;;;;;;6.53;5.80;;;;;;;;;;5137743;27;20489;-70
2022/07/02 02:26:55;;;;;;;7.03;5.97;;;;;;;;;;5135182;27;20546;-70
2022/07/02 02:29:23;;;;;;;6.37;5.60;;;;;;;;;;5137139;27;20461;-71
2022/07/02 02:31:51;;;;;;;7.17;6.40;;;;;;;;;;5136802;27;20461;-70
2022/07/02 02:34:19;;;;;;;6.57;5.90;;;;;;;;;;5136934;27;20450;-70
2022/07/02 02:36:46;;;;;;;6.03;5.43;;;;;;;;;;5135487;27;20469;-70
2022/07/02 02:39:14;;;;;;;8.40;6.67;;;;;;;;;;5136145;27;20717;-70
2022/07/02 02:41:42;;;;;;;12.13;6.20;;;;;;;;;;5135200;27;20585;-71
2022/07/02 02:44:11;;;;;;;7.63;5.93;;;;;;;;;;5135932;27;20572;-71
2022/07/02 02:46:39;;;;;;;5.93;5.10;;;;;;;;;;5134834;27;20503;-70
2022/07/02 02:49:06;;;;;;;6.17;5.57;;;;;;;;;;5135295;27;20445;-70
2022/07/02 02:51:34;;;;;;;6.80;5.60;;;;;;;;;;5134407;27;20532;-70
2022/07/02 02:54:02;;;;;;;6.50;5.90;;;;;;;;;;5135118;27;20453;-70
2022/07/02 02:56:30;;;;;;;8.33;6.53;;;;;;;;;;5136083;27;20446;-70
2022/07/02 02:58:58;;;;;;;7.47;5.40;;;;;;;;;;5136177;27;20466;-70
2022/07/02 03:01:28;;;;;;;5.47;4.60;;;;;;;;;;5136119;27;20860;-70
2022/07/02 03:03:58;;;;;;;7.53;5.83;;;;;;;;;;5135334;27;20547;-70
2022/07/02 03:06:29;;;;;;;5.37;4.87;;;;;;;;;;5136843;27;20477;-70
2022/07/02 03:08:57;;;;;;;6.07;5.47;;;;;;;;;;5135815;27;20553;-70
2022/07/02 03:11:25;;;;;;;7.30;5.37;;;;;;;;;;5136009;27;20458;-70
2022/07/02 03:13:52;;;;;;;6.63;5.93;;;;;;;;;;5135306;27;20458;-70
2022/07/02 03:16:20;;;;;;;6.60;4.93;;;;;;;;;;5135290;27;20928;-70
2022/07/02 03:18:49;;;;;;;9.40;5.90;;;;;;;;;;5135342;27;20552;-71
2022/07/02 03:21:17;;;;;;;5.80;5.03;;;;;;;;;;5135815;27;20522;-70
2022/07/02 03:23:44;;;;;;;7.67;6.07;;;;;;;;;;5136171;27;20738;-70
2022/07/02 03:26:13;;;;;;;6.80;5.57;;;;;;;;;;5135532;27;20488;-70
2022/07/02 03:28:41;;;;;;;6.30;5.50;;;;;;;;;;5136003;27;20465;-70
2022/07/02 03:31:08;;;;;;;7.17;5.40;;;;;;;;;;5135546;27;20481;-70
2022/07/02 03:33:36;;;;;;;5.93;5.10;;;;;;;;;;5135576;27;20466;-70
2022/07/02 03:36:06;;;;;;;5.93;5.00;;;;;;;;;;5135974;27;20477;-71
2022/07/02 03:38:34;;;;;;;6.53;5.47;;;;;;;;;;5135210;27;20454;-70
2022/07/02 03:41:02;;;;;;;6.50;5.57;;;;;;;;;;5134645;27;20450;-70
2022/07/02 03:43:31;;;;;;;7.97;5.20;;;;;;;;;;5134408;27;20458;-70
2022/07/02 03:45:58;;;;;;;7.40;5.93;;;;;;;;;;5135182;27;20719;-71
2022/07/02 03:48:26;;;;;;;8.90;5.97;;;;;;;;;;5135261;27;20552;-70
2022/07/02 03:50:54;;;;;;;6.20;5.60;;;;;;;;;;5136298;27;20454;-70
2022/07/02 03:53:26;;;;;;;6.80;5.20;;;;;;;;;;5134707;27;20454;-70
2022/07/02 03:55:54;;;;;;;5.97;5.17;;;;;;;;;;5135229;27;20451;-70
2022/07/02 03:58:22;;;;;;;6.33;5.40;;;;;;;;;;5134676;27;20827;-70
2022/07/02 04:00:50;;;;;;;8.80;5.50;;;;;;;;;;5135035;27;20491;-70
2022/07/02 04:03:18;;;;;;;6.07;5.50;;;;;;;;;;5133434;27;20636;-70
2022/07/02 04:05:45;;;;;;;10.60;5.90;;;;;;;;;;5134068;27;20801;-70
2022/07/02 04:08:13;;;;;;;8.17;4.77;;;;;;;;;;5133690;27;20793;-70
2022/07/02 04:10:42;;;;;;;7.37;4.97;;;;;;;;;;5133407;27;20776;-70
2022/07/02 04:13:12;;;;;;;6.00;4.67;;;;;;;;;;5133443;27;20514;-70
2022/07/02 04:15:42;;;;;;;6.33;5.43;;;;;;;;;;5133378;27;20534;-71
2022/07/02 04:18:10;;;;;;;6.73;6.03;;;;;;;;;;5134317;27;20457;-70
2022/07/02 04:20:41;;;;;;;5.80;4.80;;;;;;;;;;5133757;27;20450;-70
2022/07/02 04:23:09;;;;;;;7.93;5.10;;;;;;;;;;5131817;27;20786;-71
2022/07/02 04:25:40;;;;;;;5.40;4.90;;;;;;;;;;5133337;27;20474;-70
2022/07/02 04:28:13;;;;;;;6.40;5.53;;;;;;;;;;5133461;27;20792;-70
2022/07/02 04:30:42;;;;;;;6.80;5.80;;;;;;;;;;5133675;27;20763;-70
2022/07/02 04:33:12;;;;;;;12.20;5.20;;;;;;;;;;5134150;27;20459;-70
2022/07/02 04:35:40;;;;;;;7.10;5.30;;;;;;;;;;5129784;27;20514;-70
2022/07/02 04:38:10;;;;;;;6.73;5.30;;;;;;;;;;5133018;27;20500;-70
2022/07/02 04:40:38;;;;;;;7.90;5.13;;;;;;;;;;5134432;27;20460;-70
2022/07/02 04:43:05;;;;;;;8.37;6.43;;;;;;;;;;5133404;27;20469;-70
2022/07/02 04:45:35;;;;;;;6.90;5.60;;;;;;;;;;5133903;28;20572;-70
2022/07/02 04:48:07;;;;;;;6.90;5.50;;;;;;;;;;5136891;27;20473;-70
2022/07/02 04:50:35;;;;;;;9.23;4.83;;;;;;;;;;5131147;27;20441;-71
2022/07/02 04:53:06;;;;;;;6.30;5.17;;;;;;;;;;5136245;27;20544;-69
2022/07/02 04:55:33;;;;;;;6.23;5.63;;;;;;;;;;5115087;28;20512;-71
2022/07/02 04:58:05;;;;;;;7.07;4.83;;;;;;;;;;5132257;27;20701;-69
2022/07/02 05:00:33;;;;;;;6.70;4.37;;;;;;;;;;5141424;27;20442;-70
2022/07/02 05:03:02;;;;;;;7.30;3.43;;;;;;;;;;5134026;28;20461;-70
2022/07/02 05:05:30;;;;;;;7.60;4.03;;;;;;;;;;5146939;27;20513;-70
2022/07/02 05:07:58;;;;;;;7.57;3.20;;;;;;;;;;5153689;27;20477;-71
2022/07/02 05:10:25;;;;;;;4.60;3.40;;;;;;;;;;5132674;27;20446;-71
2022/07/02 05:12:53;;;;;;;6.37;4.00;;;;;;;;;;5134205;28;20541;-70
2022/07/02 05:15:21;;;;;;;4.97;3.50;;;;;;;;;;5133359;28;20529;-71
2022/07/02 05:17:49;;;;;;;5.43;3.80;;;;;;;;;;5112591;28;20443;-70
2022/07/02 05:20:25;;;;;;;4.43;3.30;;;;;;;;;;5122019;28;20450;-71
2022/07/02 05:22:53;;;;;;;3.53;2.60;;;;;;;;;;5133488;28;20853;-71
2022/07/02 05:25:21;;;;;;;4.17;2.40;;;;;;;;;;5133723;28;20821;-71
2022/07/02 05:27:48;;;;;;;4.90;2.43;;;;;;;;;;5123246;28;20901;-71
2022/07/02 05:30:16;;;;;;;3.37;2.40;;;;;;;;;;5113616;28;20447;-70
2022/07/02 05:32:44;;;;;;;4.33;3.33;;;;;;;;;;5113402;28;20473;-71
2022/07/02 05:35:12;;;;;;;7.33;3.00;;;;;;;;;;5112742;28;20460;-70
2022/07/02 05:37:41;;;;;;;4.20;2.57;;;;;;;;;;5114183;28;20479;-70
2022/07/02 05:40:10;;;;;;;5.80;2.93;;;;;;;;;;5141536;27;20853;-70
2022/07/02 05:42:38;;;;;;;5.13;2.60;;;;;;;;;;5135161;28;20457;-70
2022/07/02 05:45:10;;;;;;;4.57;2.30;;;;;;;;;;5132787;28;20486;-70
2022/07/02 05:47:38;;;;;;;7.50;2.30;;;;;;;;;;5134927;27;20454;-71
2022/07/02 05:50:06;;;;;;;3.20;2.50;;;;;;;;;;5133169;28;20448;-71
2022/07/02 05:52:34;;;;;;;3.90;2.70;;;;;;;;;;5133816;28;20854;-71
2022/07/02 05:55:03;;;;;;;6.30;2.53;;;;;;;;;;5133580;28;20441;-70
2022/07/02 05:57:30;;;;;;;3.60;1.83;;;;;;;;;;5134195;28;20495;-70
2022/07/02 05:59:59;;;;;;;4.30;2.37;;;;;;;;;;5132611;27;20533;-70
2022/07/02 06:02:27;;;;;;;4.30;2.37;;;;;;;;;;5135240;27;20445;-71
2022/07/02 06:04:54;;;;;;;4.10;2.33;;;;;;;;;;5131373;27;20486;-71
2022/07/02 06:07:40;;;;;;;4.00;2.43;;;;;;;;;;5133793;27;20469;-71
2022/07/02 06:10:17;;;;;;;3.73;2.30;;;;;;;;;;5136335;27;20453;-71
2022/07/02 06:12:45;;;;;;;3.77;2.13;;;;;;;;;;5126393;27;20470;-71
2022/07/02 06:15:13;;;;;;;5.97;2.70;;;;;;;;;;5136344;27;20785;-70
2022/07/02 06:17:41;;;;;;;2.83;1.93;;;;;;;;;;5135688;27;20705;-70
2022/07/02 06:20:09;;;;;;;6.33;2.70;;;;;;;;;;5135307;27;20453;-70
2022/07/02 06:22:37;;;;;;;6.43;2.20;;;;;;;;;;5130560;27;20462;-70
2022/07/02 06:25:09;;;;;;;4.17;1.70;;;;;;;;;;5136460;27;20966;-69
2022/07/02 06:27:38;;;;;;;3.10;1.70;;;;;;;;;;5134828;27;20457;-69
2022/07/02 06:30:07;;;;;;;6.87;2.10;;;;;;;;;;5135335;27;20458;-71
2022/07/02 06:32:37;;;;;;;5.97;2.03;;;;;;;;;;5134488;27;20541;-69
2022/07/02 06:35:06;;;;;;;3.77;1.97;;;;;;;;;;5124765;27;20935;-71
2022/07/02 06:37:34;;;;;;;3.47;1.80;;;;;;;;;;5115639;28;20531;-69
2022/07/02 06:40:02;;;;;;;4.67;1.60;;;;;;;;;;5115397;28;20458;-71
2022/07/02 06:42:30;;;;;;;8.37;1.50;;;;;;;;;;5115438;28;20895;-70
2022/07/02 06:45:00;;;;;;;2.87;1.83;;;;;;;;;;5128835;27;20458;-69
2022/07/02 06:47:30;;;;;;;4.33;1.30;;;;;;;;;;5135241;27;20478;-71
2022/07/02 06:50:00;;;;;;;6.00;2.00;;;;;;;;;;5136247;27;20484;-70
2022/07/02 06:52:29;;;;;;;4.30;1.73;;;;;;;;;;5126281;27;20526;-70
2022/07/02 06:54:57;;;;;;;3.20;1.50;;;;;;;;;;5113931;28;20482;-70
2022/07/02 06:57:25;;;;;;;4.60;1.57;;;;;;;;;;5114129;28;20458;-71
2022/07/02 06:59:53;;;;;;;6.63;1.77;;;;;;;;;;5115012;28;20459;-71
2022/07/02 07:02:26;;;;;;;4.40;1.17;;;;;;;;;;5129543;27;20477;-72
2022/07/02 07:04:54;;;;;;;2.70;1.83;;;;;;;;;;5134257;27;20469;-71
2022/07/02 07:07:29;;;;;;;5.10;1.27;;;;;;;;;;5135244;27;20446;-71
2022/07/02 07:09:57;;;;;;;3.60;1.17;;;;;;;;;;5133887;27;20525;-71
2022/07/02 07:12:25;;;;;;;3.33;1.30;;;;;;;;;;5129005;27;20441;-71
2022/07/02 07:14:55;;;;;;;3.13;1.43;;;;;;;;;;5132853;27;20870;-71
2022/07/02 07:17:23;;;;;;;2.27;1.30;;;;;;;;;;5133474;27;20466;-71
2022/07/02 07:19:53;;;;;;;8.17;2.80;;;;;;;;;;5132682;27;20450;-71
2022/07/02 07:22:21;;;;;;;5.30;1.70;;;;;;;;;;5134370;27;20441;-71
2022/07/02 07:24:49;;;;;;;2.30;1.00;;;;;;;;;;5133982;27;20490;-72
2022/07/02 07:27:18;;;;;;;2.10;1.03;;;;;;;;;;5133062;27;20493;-71
2022/07/02 07:29:46;;;;;;;3.37;1.10;;;;;;;;;;5133974;27;20454;-71
2022/07/02 07:32:14;;;;;;;3.30;1.40;;;;;;;;;;5123272;27;20464;-72
2022/07/02 07:34:51;;;;;;;4.90;1.47;;;;;;;;;;5130974;27;20487;-71
2022/07/02 07:37:27;;;;;;;4.47;1.27;;;;;;;;;;5114515;27;20933;-71
2022/07/02 07:39:56;;;;;;;3.00;1.17;;;;;;;;;;5113744;27;20957;-72
2022/07/02 07:42:27;;;;;;;3.17;1.10;;;;;;;;;;5119469;27;20451;-71
2022/07/02 07:44:55;;;;;;;4.03;1.20;;;;;;;;;;5128748;27;20909;-72
2022/07/02 07:47:23;;;;;;;2.87;0.97;;;;;;;;;;5129738;27;20810;-71
2022/07/02 07:49:51;;;;;;;2.63;1.20;;;;;;;;;;5130996;27;20470;-70
2022/07/02 07:52:21;;;;;;;2.93;0.80;;;;;;;;;;5113616;27;20454;-70
2022/07/02 07:54:49;;;;;;;4.13;1.60;;;;;;;;;;5111752;28;20501;-71
2022/07/02 07:57:21;;;;;;;2.53;1.00;;;;;;;;;;5128534;27;20462;-69
2022/07/02 07:59:53;;;;;;;3.00;1.60;;;;;;;;;;5123525;27;20460;-70
2022/07/02 08:02:21;;;;;;;2.33;0.90;;;;;;;;;;5127505;27;20458;-71
2022/07/02 08:05:04;;;;;;;3.30;1.07;;;;;;;;;;5128158;27;20468;-72
2022/07/02 08:07:39;;;;;;;3.70;1.23;;;;;;;;;;5116551;27;20836;-72
2022/07/02 08:10:09;;;;;;;4.50;1.10;;;;;;;;;;5132218;27;20853;-73
2022/07/02 08:12:38;;;;;;;4.00;1.43;;;;;;;;;;5132724;27;20442;-72
2022/07/02 08:15:07;;;;;;;3.43;1.10;;;;;;;;;;5132131;27;20523;-72
2022/07/02 08:17:35;;;;;;;3.47;1.13;;;;;;;;;;5133160;27;20481;-71
2022/07/02 08:20:09;;;;;;;3.50;1.63;;;;;;;;;;5134162;27;20518;-72
2022/07/02 08:22:49;;;;;;;;;;;;;;;;;;;;;
2022/07/02 08:25:17;;;;;;;4.80;1.27;;;;;;;;;;5132265;27;20477;-72
2022/07/02 08:27:53;;;;;;;6.40;1.70;;;;;;;;;;5124848;27;20494;-71
2022/07/02 08:30:23;;;;;;;5.17;1.53;;;;;;;;;;5130592;27;20464;-72
2022/07/02 08:32:51;;;;;;;5.40;1.30;;;;;;;;;;5112374;28;20469;-71
2022/07/02 08:35:23;;;;;;;3.30;1.50;;;;;;;;;;5133883;27;20526;-70
2022/07/02 08:37:55;;;;;;;3.37;1.37;;;;;;;;;;5129025;27;20545;-73
2022/07/02 08:43:17;;;;;;;3.83;0.90;;;;;;;;;;5113333;28;20566;-72
2022/07/02 08:46:02;;;;;;;4.83;1.30;;;;;;;;;;5144662;27;20989;-71
2022/07/02 08:48:36;;;;;;;4.60;1.53;;;;;;;;;;5110813;28;20557;-73
2022/07/02 08:51:10;;;;;;;2.27;1.10;;;;;;;;;;5122625;27;20971;-73
2022/07/02 08:53:40;;;;;;;3.80;1.20;;;;;;;;;;5151592;27;20535;-73
2022/07/02 08:56:13;;;;;;;2.17;0.80;;;;;;;;;;5151417;27;20473;-72
2022/07/02 08:58:50;;;;;;;3.47;1.73;;;;;;;;;;5114729;28;20497;-72
2022/07/02 09:01:21;;;;;;;2.43;1.00;;;;;;;;;;5134464;27;20555;-73
2022/07/02 09:03:51;;;;;;;2.53;0.97;;;;;;;;;;5135898;27;20938;-73
2022/07/02 09:06:19;;;;;;;4.50;3.30;;;;;;;;;;5120341;27;20550;-70
2022/07/02 09:08:49;;;;;;;3.80;0.90;;;;;;;;;;5124314;27;20469;-72
2022/07/02 09:11:20;;;;;;;2.37;1.20;;;;;;;;;;5124286;27;20473;-72
2022/07/02 09:13:53;;;;;;;3.27;1.13;;;;;;;;;;5128323;27;20454;-72
2022/07/02 09:16:24;;;;;;;1.77;1.00;;;;;;;;;;5119690;27;20477;-71
2022/07/02 09:18:52;;;;;;;1.80;0.87;;;;;;;;;;5111349;27;20488;-72
2022/07/02 09:21:21;;;;;;;5.63;1.20;;;;;;;;;;5108639;28;20551;-72
2022/07/02 09:23:51;;;;;;;2.57;0.80;;;;;;;;;;5123164;28;20458;-72
2022/07/02 09:26:20;;;;;;;2.70;0.80;;;;;;;;;;5108874;28;20478;-72
2022/07/02 09:29:04;;;;;;;3.80;1.17;;;;;;;;;;5109599;28;20462;-70
2022/07/02 09:31:32;;;;;;;2.33;0.90;;;;;;;;;;5108457;28;20557;-72
2022/07/02 09:34:00;;;;;;;2.10;0.80;;;;;;;;;;5109104;28;20498;-71
2022/07/02 09:36:28;;;;;;;2.17;0.80;;;;;;;;;;5114783;27;20454;-73
2022/07/02 09:38:58;;;;;;;3.23;0.90;;;;;;;;;;5120576;27;20459;-71
2022/07/02 09:41:26;;;;;;;2.23;0.87;;;;;;;;;;5119461;27;20840;-71
2022/07/02 09:43:55;;;;;;;1.87;0.90;;;;;;;;;;5125948;27;20473;-71
2022/07/02 09:46:24;;;;;;;5.00;0.90;;;;;;;;;;5121684;27;20501;-71
2022/07/02 09:48:52;;;;;;;3.00;0.97;;;;;;;;;;5143199;27;20476;-71
2022/07/02 09:51:20;;;;;;;2.20;1.00;;;;;;;;;;5131012;27;20481;-71
2022/07/02 09:53:48;;;;;;;3.00;1.03;;;;;;;;;;5114242;27;20455;-72
2022/07/02 09:56:18;;;;;;;3.53;1.00;;;;;;;;;;5116353;27;20449;-71
2022/07/02 09:58:46;;;;;;;3.20;0.80;;;;;;;;;;5131438;27;20714;-71
2022/07/02 10:01:23;;;;;;;4.17;1.37;;;;;;;;;;5131043;27;20552;-71
2022/07/02 10:04:06;;;;;;;1.90;0.90;;;;;;;;;;5131908;27;20481;-71
2022/07/02 10:06:35;;;;;;;4.80;0.90;;;;;;;;;;5124153;27;20885;-72
2022/07/02 10:09:04;;;;;;;2.33;0.80;;;;;;;;;;5128219;27;20494;-72
2022/07/02 10:11:34;;;;;;;3.70;1.03;;;;;;;;;;5127737;27;21141;-72
2022/07/02 10:14:02;;;;;;;3.43;1.10;;;;;;;;;;5127016;27;20491;-71
2022/07/02 10:16:33;;;;;;;3.20;1.50;;;;;;;;;;5128253;27;20977;-71
2022/07/02 10:19:04;;;;;;;3.10;1.30;;;;;;;;;;5120835;27;20463;-69
2022/07/02 10:21:32;;;;;;;1.90;0.80;;;;;;;;;;5129486;27;20454;-74
2022/07/02 10:24:00;;;;;;;4.23;1.47;;;;;;;;;;5125727;27;20549;-73
2022/07/02 10:26:28;;;;;;;2.27;0.93;;;;;;;;;;5123401;27;20486;-72
2022/07/02 10:28:58;;;;;;;2.20;1.00;;;;;;;;;;5130673;27;20453;-72
2022/07/02 10:31:33;;;;;;;9.43;2.93;;;;;;;;;;5120785;27;20463;-72
2022/07/02 10:34:11;;;;;;;4.50;1.20;;;;;;;;;;5129976;27;20457;-72
2022/07/02 10:36:41;;;;;;;4.00;0.90;;;;;;;;;;5111590;28;20529;-70
2022/07/02 10:39:10;;;;;;;3.47;1.07;;;;;;;;;;5122933;27;20461;-71
2022/07/02 10:41:47;;;;;;;2.47;0.70;;;;;;;;;;5121203;27;20462;-71
2022/07/02 10:44:17;;;;;;;2.00;0.70;;;;;;;;;;5112387;28;20455;-71
2022/07/02 10:46:48;;;;;;;2.27;0.80;;;;;;;;;;5113206;27;20481;-71
2022/07/02 10:49:37;;;;;;;2.83;1.10;;;;;;;;;;5117636;27;20654;-72
2022/07/02 10:52:08;;;;;;;4.07;1.33;;;;;;;;;;5129639;27;20461;-71
2022/07/02 10:54:39;;;;;;;3.33;0.87;;;;;;;;;;5136597;27;20500;-71
2022/07/02 10:57:16;;;;;;;3.40;2.00;;;;;;;;;;5133562;27;20465;-71
2022/07/02 10:59:47;;;;;;;5.20;0.80;;;;;;;;;;5131713;27;20926;-71
2022/07/02 11:02:17;;;;;;;1.97;0.90;;;;;;;;;;5114503;27;20515;-72
2022/07/02 11:04:45;;;;;;;2.93;1.23;;;;;;;;;;5134227;27;20873;-71
2022/07/02 11:07:14;;;;;;;5.10;1.50;;;;;;;;;;5131860;27;20482;-71
2022/07/02 11:09:48;;;;;;;3.23;1.30;;;;;;;;;;5113975;27;20486;-71
2022/07/02 11:12:19;;;;;;;3.00;0.90;;;;;;;;;;5130634;27;20912;-71
2022/07/02 11:14:56;;;;;;;4.70;1.10;;;;;;;;;;5120961;27;20445;-71
2022/07/02 11:17:25;;;;;;;4.43;1.83;;;;;;;;;;5129673;27;20438;-71
2022/07/02 11:19:54;;;;;;;4.30;1.97;;;;;;;;;;5123388;27;20481;-71
2022/07/02 11:22:23;;;;;;;3.17;1.00;;;;;;;;;;5122497;27;20834;-72
2022/07/02 11:24:55;;;;;;;1.97;0.70;;;;;;;;;;5140916;27;20454;-71
2022/07/02 11:27:23;;;;;;;6.73;1.10;;;;;;;;;;5139835;27;20548;-71
2022/07/02 11:29:56;;;;;;;6.20;1.50;;;;;;;;;;5151209;27;20457;-71
2022/07/02 11:32:24;;;;;;;6.60;1.00;;;;;;;;;;5149937;27;20437;-71
2022/07/02 11:35:03;;;;;;;4.17;0.80;;;;;;;;;;5131095;27;20461;-71
2022/07/02 11:37:31;;;;;;;3.40;0.97;;;;;;;;;;5112775;27;20545;-71
2022/07/02 11:39:59;;;;;;;5.00;0.90;;;;;;;;;;5129900;27;20557;-72
2022/07/02 11:42:38;;;;;;;8.53;1.70;;;;;;;;;;5130936;27;20445;-72
2022/07/02 11:45:12;;;;;;;2.73;0.97;;;;;;;;;;5111774;27;20641;-72
2022/07/02 11:47:44;;;;;;;1.83;0.80;;;;;;;;;;5110331;28;20504;-72
2022/07/02 11:50:42;;;;;;;2.60;1.07;;;;;;;;;;5126504;27;21136;-73
2022/07/02 11:53:14;;;;;;;5.93;0.90;;;;;;;;;;5131048;27;20454;-72
2022/07/02 11:55:43;;;;;;;4.97;0.80;;;;;;;;;;5133416;27;20537;-72
2022/07/02 11:58:11;;;;;;;4.57;1.20;;;;;;;;;;5110948;27;20489;-72
2022/07/02 12:00:48;;;;;;;4.50;0.90;;;;;;;;;;5116438;27;20453;-74
2022/07/02 12:03:48;;;;;;;6.40;2.60;;;;;;;;;;5111524;27;20534;-73
2022/07/02 12:06:16;;;;;;;6.23;2.30;;;;;;;;;;5125208;27;20552;-73
2022/07/02 12:08:44;;;;;;;4.50;1.77;;;;;;;;;;5119989;27;20576;-73
2022/07/02 12:11:12;;;;;;;2.13;0.80;;;;;;;;;;5109289;28;20695;-72
2022/07/02 12:13:41;;;;;;;2.43;0.80;;;;;;;;;;5123302;27;20466;-73
2022/07/02 12:16:13;;;;;;;2.20;0.70;;;;;;;;;;5124223;27;20451;-72
2022/07/02 12:18:42;;;;;;;3.00;0.93;;;;;;;;;;5118664;27;20549;-71
2022/07/02 12:23:56;;;;;;;2.20;0.80;;;;;;;;;;5135165;27;20462;-71
2022/07/02 12:26:24;;;;;;;2.97;1.53;;;;;;;;;;5132350;27;20466;-72
2022/07/02 12:31:50;;;;;;;3.20;1.53;;;;;;;;;;5115516;27;20441;-71
2022/07/02 12:34:21;;;;;;;2.27;0.97;;;;;;;;;;5122249;27;20454;-70
2022/07/02 12:36:59;;;;;;;2.30;1.00;;;;;;;;;;5130621;27;20469;-73
2022/07/02 12:39:39;;;;;;;5.70;2.60;;;;;;;;;;5128891;27;20462;-71
2022/07/02 12:42:17;;;;;;;7.60;3.70;;;;;;;;;;5126065;27;20920;-73
2022/07/02 12:44:55;;;;;;;7.17;1.70;;;;;;;;;;5125916;27;20487;-73
2022/07/02 12:47:35;;;;;;;4.73;2.87;;;;;;;;;;5126434;27;20481;-74
2022/07/02 12:50:04;;;;;;;3.67;2.07;;;;;;;;;;5112008;28;20465;-71
2022/07/02 12:52:32;;;;;;;5.13;2.10;;;;;;;;;;5116239;28;20521;-72
2022/07/02 12:55:00;;;;;;;3.90;1.80;;;;;;;;;;5109330;28;20447;-74
2022/07/02 12:57:28;;;;;;;5.33;2.80;;;;;;;;;;5109472;28;20458;-71
2022/07/02 12:59:58;;;;;;;2.87;1.50;;;;;;;;;;5109178;28;20461;-72
2022/07/02 13:02:28;;;;;;;4.13;1.33;;;;;;;;;;5115553;28;20564;-71
2022/07/02 13:04:57;;;;;;;3.70;1.53;;;;;;;;;;5127611;28;20463;-72
2022/07/02 13:07:26;;;;;;;18.67;9.50;;;;;;;;;;5128882;27;20902;-73
2022/07/02 13:09:54;;;;;;;4.73;2.17;;;;;;;;;;5123556;27;20465;-73
2022/07/02 13:12:26;;;;;;;3.27;0.97;;;;;;;;;;5126942;27;20469;-71
2022/07/02 13:15:06;;;;;;;2.53;1.30;;;;;;;;;;5135200;27;20453;-72
2022/07/02 13:17:36;;;;;;;1.83;0.70;;;;;;;;;;5127506;27;20445;-72
2022/07/02 13:20:06;;;;;;;4.30;2.70;;;;;;;;;;5128581;27;20506;-72
2022/07/02 13:22:34;;;;;;;5.47;1.10;;;;;;;;;;5131958;27;20461;-72
2022/07/02 13:25:02;;;;;;;3.43;1.73;;;;;;;;;;5132843;27;20462;-73
2022/07/02 13:27:30;;;;;;;7.03;2.20;;;;;;;;;;5123128;27;20681;-72
2022/07/02 13:29:59;;;;;;;3.77;1.33;;;;;;;;;;5121535;27;20553;-73
2022/07/02 13:32:27;;;;;;;4.90;2.50;;;;;;;;;;5117358;27;20504;-72
2022/07/02 13:34:58;;;;;;;4.53;2.47;;;;;;;;;;5128775;27;20546;-73
2022/07/02 13:37:33;;;;;;;4.23;1.60;;;;;;;;;;5126573;27;20448;-73
2022/07/02 13:40:01;;;;;;;5.33;1.07;;;;;;;;;;5134185;27;20460;-73
2022/07/02 13:42:33;;;;;;;2.37;0.90;;;;;;;;;;5119340;27;20458;-72
2022/07/02 13:45:04;;;;;;;4.27;1.67;;;;;;;;;;5115768;27;20619;-72
2022/07/02 13:47:31;;;;;;;3.73;1.53;;;;;;;;;;5145325;27;20488;-73
2022/07/02 13:49:59;;;;;;;2.93;1.00;;;;;;;;;;5131484;27;20450;-72
2022/07/02 13:52:30;;;;;;;5.73;2.50;;;;;;;;;;5121384;27;20458;-72
2022/07/02 13:55:04;;;;;;;4.80;2.50;;;;;;;;;;5116846;27;20522;-72
2022/07/02 13:57:34;;;;;;;3.80;2.17;;;;;;;;;;5130226;27;20445;-72
2022/07/02 14:00:06;;;;;;;5.10;1.60;;;;;;;;;;5116702;27;20505;-73
2022/07/02 14:02:44;;;;;;;5.40;1.70;;;;;;;;;;5131482;27;21129;-73
2022/07/02 14:05:14;;;;;;;4.93;2.00;;;;;;;;;;5125631;27;20511;-73
2022/07/02 14:07:45;;;;;;;2.13;1.10;;;;;;;;;;5119267;27;20481;-72
2022/07/02 14:10:17;;;;;;;6.77;1.93;;;;;;;;;;5132934;27;20481;-73
2022/07/02 14:12:46;;;;;;;2.57;1.40;;;;;;;;;;5133143;27;20468;-72
2022/07/02 14:15:18;;;;;;;2.83;1.83;;;;;;;;;;5122702;27;20462;-72
2022/07/02 14:17:46;;;;;;;3.20;1.07;;;;;;;;;;5131526;27;20460;-72
2022/07/02 14:20:15;;;;;;;8.90;3.40;;;;;;;;;;5129178;27;20446;-72
2022/07/02 14:22:43;;;;;;;3.00;1.00;;;;;;;;;;5130783;27;20485;-72
2022/07/02 14:25:11;;;;;;;2.77;1.47;;;;;;;;;;5132176;27;20794;-72
2022/07/02 14:27:41;;;;;;;4.33;3.23;;;;;;;;;;5122354;27;20810;-72
2022/07/02 14:30:10;;;;;;;5.10;1.63;;;;;;;;;;5130107;27;20969;-72
2022/07/02 14:32:38;;;;;;;3.90;0.93;;;;;;;;;;5132763;27;20453;-72
2022/07/02 14:35:09;;;;;;;2.67;1.30;;;;;;;;;;5132164;27;20460;-72
2022/07/02 14:37:37;;;;;;;4.10;1.40;;;;;;;;;;5132926;27;20457;-72
2022/07/02 14:40:07;;;;;;;4.63;2.20;;;;;;;;;;5131573;27;20891;-72
2022/07/02 14:42:45;;;;;;;4.77;1.33;;;;;;;;;;5133665;27;20450;-71
2022/07/02 14:45:18;;;;;;;5.20;2.50;;;;;;;;;;5133030;27;20810;-71
2022/07/02 14:47:47;;;;;;;8.23;2.37;;;;;;;;;;5133698;27;21004;-71
2022/07/02 14:50:18;;;;;;;3.40;1.00;;;;;;;;;;5131534;27;20457;-71
2022/07/02 14:52:46;;;;;;;2.53;0.90;;;;;;;;;;5130152;27;20524;-72
2022/07/02 14:55:14;;;;;;;3.90;0.87;;;;;;;;;;5132216;27;20453;-71
2022/07/02 14:57:42;;;;;;;6.70;2.30;;;;;;;;;;5132306;27;20453;-71
2022/07/02 15:00:11;;;;;;;5.77;2.07;;;;;;;;;;5131921;27;20481;-71
2022/07/02 15:02:41;;;;;;;6.80;3.03;;;;;;;;;;5131748;27;20525;-71
2022/07/02 15:05:12;;;;;;;6.87;3.40;;;;;;;;;;5132031;27;20453;-72
2022/07/02 15:07:41;;;;;;;4.07;1.93;;;;;;;;;;5138556;27;20619;-71
2022/07/02 15:10:13;;;;;;;2.73;1.20;;;;;;;;;;5152934;27;20464;-71
2022/07/02 15:12:41;;;;;;;5.23;2.57;;;;;;;;;;5118025;27;20885;-71